Flight Track Log - Related Links

Times and Time Zones

All times are in EDT time to prevent confusion due to time zone crossing. See the SWA118 flight status page for this flight to view local times or setup timezone preferences in your user account.

Time Position Orientation Groundspeed Altitude Reporting Facility
EDT Latitude Longitude Course Direction KTS MPH feet Rate Location/Type
Fri 07:25:09 PM 41.7730 -87.7690 234° Southwest 157 181 1,600  Level FlightAware ADS-B
Fri 07:25:23 PM 41.7680 -87.7820 243° Southwest 175 201 2,000 1,429 Climbing FlightAware ADS-B
Fri 07:25:51 PM 41.7600 -87.8160 253° West 223 257 2,600 2,211 Climbing FlightAware ADS-B
Fri 07:26:20 PM 41.7490 -87.8530 248° West 232 267 4,100 3,000 Climbing FlightAware ADS-B
Fri 07:26:31 PM 41.7450 -87.8690 251° West 241 277 4,600 2,667 Climbing FlightAware ADS-B
Fri 07:26:47 PM 41.7420 -87.8930 260° West 255 293 5,300 2,864 Climbing FlightAware ADS-B
Fri 07:27:15 PM 41.7410 -87.9400 268° West 269 310 6,700 2,947 Climbing FlightAware ADS-B
Fri 07:27:44 PM 41.7410 -87.9870 270° West 280 322 8,100 2,947 Climbing FlightAware ADS-B
Fri 07:28:12 PM 41.7500 -88.0340 284° West 295 339 9,500 3,138 Climbing FlightAware ADS-B
Fri 07:28:49 PM 41.7750 -88.0950 299° West 302 348 11,500 2,893 Climbing FlightAware ADS-B
Fri 07:29:08 PM 41.7800 -88.1290 281° West 295 339 12,200 1,714 Climbing FlightAware ADS-B
Fri 07:29:45 PM 41.7810 -88.2010 271° West 331 381 13,100 1,688 Climbing FlightAware ADS-B
Fri 07:30:44 PM 41.7810 -88.3330 270° West 380 437 14,900 2,263 Climbing FlightAware ADS-B
Fri 07:31:39 PM 41.7800 -88.4580 269° West 385 443 17,400 2,520 Climbing FlightAware ADS-B
Fri 07:32:24 PM 41.7800 -88.5690 270° West 397 457 19,100 2,276 Climbing FlightAware ADS-B
Fri 07:33:06 PM 41.7790 -88.6740 269° West 406 467 20,700 2,211 Climbing FlightAware ADS-B
Fri 07:33:40 PM 41.7780 -88.7600 269° West 412 474 21,900 2,108 Climbing FlightAware ADS-B
Fri 07:34:20 PM 41.7770 -88.8630 269° West 418 481 23,300 1,835 Climbing FlightAware ADS-B
Fri 07:35:05 PM 41.7770 -88.9820 270° West 429 494 24,500 1,624 Climbing FlightAware ADS-B
Fri 07:35:45 PM 41.7710 -89.0900 266° West 436 502 25,600 1,537 Climbing FlightAware ADS-B
Fri 07:36:27 PM 41.7610 -89.2040 263° West 443 510 26,600 1,446 Climbing FlightAware ADS-B
Fri 07:37:08 PM 41.7530 -89.3140 264° West 449 517 27,600 1,395 Climbing FlightAware ADS-B
Fri 07:37:53 PM 41.7420 -89.4420 263° West 457 526 28,600 1,333 Climbing FlightAware ADS-B
Fri 07:38:29 PM 41.7340 -89.5440 264° West 460 529 29,400 1,500 Climbing FlightAware ADS-B
Fri 07:39:09 PM 41.7250 -89.6560 264° West 458 527 30,500 1,500 Climbing FlightAware ADS-B
Fri 07:39:49 PM 41.7160 -89.7680 264° West 458 527 31,400 1,200 Climbing FlightAware ADS-B
Fri 07:40:29 PM 41.7060 -89.8810 263° West 463 533 32,100 947 Climbing FlightAware ADS-B
Fri 07:41:05 PM 41.6980 -89.9860 264° West 471 542 32,600 815 Climbing FlightAware ADS-B
Fri 07:41:50 PM 41.6870 -90.1130 263° West 477 549 33,200 857 Climbing FlightAware ADS-B
Fri 07:42:29 PM 41.6770 -90.2310 264° West 482 555 33,800 1,000 Climbing FlightAware ADS-B
Fri 07:43:14 PM 41.6660 -90.3610 264° West 482 555 34,600 1,227 Climbing FlightAware ADS-B
Fri 07:43:57 PM 41.6540 -90.4880 263° West 476 548 35,600 1,037 Climbing FlightAware ADS-B
Fri 07:44:35 PM 41.6450 -90.5970 264° West 472 543 36,000 286 Climbing FlightAware ADS-B
Fri 07:45:21 PM 41.6330 -90.7290 263° West 468 539 36,000  Level FlightAware ADS-B
Fri 07:45:55 PM 41.6240 -90.8270 263° West 468 539 36,000  Level FlightAware ADS-B
Fri 07:46:38 PM 41.6130 -90.9470 263° West 468 539 36,000  Level FlightAware ADS-B
Fri 07:47:19 PM 41.6010 -91.0690 263° West 469 540 36,000  Level FlightAware ADS-B
Fri 07:47:53 PM 41.5920 -91.1660 263° West 468 539 36,000  Level FlightAware ADS-B
Fri 07:48:37 PM 41.5810 -91.2860 263° West 467 537 36,000  Level FlightAware ADS-B
Fri 07:49:16 PM 41.5700 -91.3940 262° West 466 536 36,000  Level FlightAware ADS-B
Fri 07:50:01 PM 41.5570 -91.5310 263° West 463 533 36,000  Level FlightAware ADS-B
Fri 07:50:42 PM 41.5460 -91.6470 263° West 462 532 36,000  Level FlightAware ADS-B
Fri 07:51:25 PM 41.5340 -91.7690 263° West 463 533 36,000  Level FlightAware ADS-B
Fri 07:52:05 PM 41.5220 -91.8790 262° West 463 533 36,000  Level FlightAware ADS-B
Fri 07:52:53 PM 41.5080 -92.0160 262° West 464 534 36,000 257 Level FlightAware ADS-B
Fri 07:55:35 PM 41.4610 -92.4760 262° West 461 531 36,900 437 Climbing FlightAware ADS-B
Fri 07:56:19 PM 41.4470 -92.6010 262° West 460 529 37,500 701 Climbing FlightAware ADS-B
Fri 07:56:52 PM 41.4370 -92.6910 262° West 463 533 37,800 395 Climbing FlightAware ADS-B
Fri 07:57:35 PM 41.4240 -92.8150 262° West 466 536 38,000 143 Climbing FlightAware ADS-B
Fri 07:58:16 PM 41.4120 -92.9280 262° West 465 535 38,000  Level FlightAware ADS-B
Fri 07:58:59 PM 41.3980 -93.0520 261° West 464 534 38,000  Level FlightAware ADS-B
Fri 07:59:39 PM 41.3850 -93.1650 261° West 460 529 38,000  Level FlightAware ADS-B
Fri 08:00:25 PM 41.3710 -93.2910 262° West 456 525 38,000  Level FlightAware ADS-B
Fri 08:01:05 PM 41.3580 -93.4030 261° West 456 525 38,000  Level FlightAware ADS-B
Fri 08:01:41 PM 41.3470 -93.5000 261° West 455 524 38,000  Level FlightAware ADS-B
Fri 08:02:30 PM 41.3320 -93.6230 261° West 455 524 38,000  Level FlightAware ADS-B
Fri 08:03:16 PM 41.3160 -93.7640 261° West 458 527 38,000  Level FlightAware ADS-B
Fri 08:03:50 PM 41.3050 -93.8580 261° West 458 527 38,000  Level FlightAware ADS-B
Fri 08:04:28 PM 41.2930 -93.9620 261° West 459 528 38,000  Level FlightAware ADS-B
Fri 08:05:13 PM 41.2780 -94.0860 261° West 459 528 38,000  Level FlightAware ADS-B
Fri 08:05:59 PM 41.2620 -94.2060 260° West 459 528 38,000  Level FlightAware ADS-B
Fri 08:06:41 PM 41.2470 -94.3330 261° West 458 527 38,000  Level FlightAware ADS-B
Fri 08:07:22 PM 41.2330 -94.4490 261° West 458 527 38,000  Level FlightAware ADS-B
Fri 08:08:06 PM 41.2170 -94.5710 260° West 457 526 38,000  Level FlightAware ADS-B
Fri 08:08:40 PM 41.2050 -94.6640 260° West 457 526 38,000  Level FlightAware ADS-B
Fri 08:09:34 PM 41.1870 -94.8120 261° West 459 528 38,000  Level FlightAware ADS-B
Fri 08:10:18 PM 41.1710 -94.9350 260° West 458 527 38,000  Level FlightAware ADS-B
Fri 08:11:00 PM 41.1570 -95.0500 261° West 458 527 38,000  Level FlightAware ADS-B
Fri 08:11:44 PM 41.1410 -95.1720 260° West 456 525 38,000  Level FlightAware ADS-B
Fri 08:12:24 PM 41.1260 -95.2820 260° West 455 524 38,000  Level FlightAware ADS-B
Fri 08:13:08 PM 41.1100 -95.4020 260° West 452 520 38,000  Level FlightAware ADS-B
Fri 08:13:40 PM 41.0990 -95.4910 261° West 451 519 38,000  Level FlightAware ADS-B
Fri 08:14:24 PM 41.0820 -95.6110 259° West 449 517 38,000  Level FlightAware ADS-B
Fri 08:15:04 PM 41.0680 -95.7170 260° West 447 514 38,000  Level FlightAware ADS-B
Fri 08:15:40 PM 41.0550 -95.8130 260° West 445 512 38,000  Level FlightAware ADS-B
Fri 08:16:22 PM 41.0390 -95.9260 259° West 446 513 38,000  Level FlightAware ADS-B
Fri 08:17:02 PM 41.0240 -96.0350 260° West 447 514 38,000  Level FlightAware ADS-B
Fri 08:17:48 PM 41.0070 -96.1560 259° West 446 513 38,000  Level FlightAware ADS-B
Fri 08:18:28 PM 40.9920 -96.2650 260° West 445 512 38,000  Level FlightAware ADS-B
Fri 08:19:12 PM 40.9760 -96.3830 260° West 444 511 38,000  Level FlightAware ADS-B
Fri 08:19:52 PM 40.9600 -96.4880 259° West 443 510 38,000  Level FlightAware ADS-B
Fri 08:20:32 PM 40.9450 -96.5950 260° West 442 509 38,000  Level FlightAware ADS-B
Fri 08:21:06 PM 40.9320 -96.6840 259° West 442 509 38,000  Level FlightAware ADS-B
Fri 08:21:52 PM 40.9120 -96.8060 258° West 444 511 38,000  Level FlightAware ADS-B
Fri 08:22:28 PM 40.8950 -96.8980 256° West 443 510 38,000  Level FlightAware ADS-B
Fri 08:23:08 PM 40.8760 -97.0040 257° West 441 507 38,000  Level FlightAware ADS-B
Fri 08:23:48 PM 40.8570 -97.1080 256° West 439 505 38,000  Level FlightAware ADS-B
Fri 08:24:28 PM 40.8370 -97.2140 256° West 437 503 38,000  Level FlightAware ADS-B
Fri 08:25:09 PM 40.8180 -97.3150 256° West 436 502 38,000  Level FlightAware ADS-B
Fri 08:25:48 PM 40.7990 -97.4180 256° West 435 501 38,000  Level FlightAware ADS-B
Fri 08:26:28 PM 40.7800 -97.5220 256° West 436 502 38,000  Level FlightAware ADS-B
Fri 08:27:12 PM 40.7580 -97.6350 256° West 440 506 38,000  Level FlightAware ADS-B
Fri 08:27:54 PM 40.7370 -97.7450 256° West 440 506 38,000  Level FlightAware ADS-B
Fri 08:28:36 PM 40.7160 -97.8550 256° West 440 506 38,000  Level FlightAware ADS-B
Fri 08:29:12 PM 40.6990 -97.9470 256° West 439 505 38,000  Level FlightAware ADS-B
Fri 08:29:52 PM 40.6790 -98.0500 256° West 438 504 38,000  Level FlightAware ADS-B
Fri 08:30:46 PM 40.6520 -98.1850 255° West 437 503 38,000  Level FlightAware ADS-B
Fri 08:31:26 PM 40.6340 -98.2730 255° West 437 503 38,000  Level FlightAware ADS-B
Fri 08:32:02 PM 40.6180 -98.3510 255° West 437 503 38,000  Level FlightAware ADS-B
Fri 08:32:50 PM 40.5970 -98.4560 255° West 437 503 38,000  Level FlightAware ADS-B
Fri 08:33:26 PM 40.5810 -98.5350 255° West 437 503 38,000  Level FlightAware ADS-B
Fri 08:34:14 PM 40.5600 -98.6400 255° West 437 503 38,000  Level FlightAware ADS-B
Fri 08:34:50 PM 40.5440 -98.7190 255° West 437 503 38,000  Level FlightAware ADS-B
Fri 08:35:52 PM 40.5160 -98.8540 255° West 437 503 38,000  Level FlightAware ADS-B
Fri 08:36:26 PM 40.5010 -98.9280 255° West 437 503 38,000  Level FlightAware ADS-B
Fri 08:37:03 PM 40.4840 -99.0090 255° West 437 503 38,000  Level FlightAware ADS-B
Fri 08:37:51 PM 40.4630 -99.1140 255° West 437 503 38,000  Level FlightAware ADS-B
Fri 08:38:27 PM 40.4470 -99.1920 255° West 437 503 38,000  Level FlightAware ADS-B
Fri 08:39:03 PM 40.4310 -99.2710 255° West 437 503 38,000  Level FlightAware ADS-B
Fri 08:39:51 PM 40.4100 -99.3750 255° West 437 503 38,000  Level FlightAware ADS-B
Fri 08:40:26 PM 40.3940 -99.4520 255° West 437 503 38,000  Level FlightAware ADS-B
Fri 08:41:44 PM 40.7250 -99.8528 255° West 420 483 38,000  Level Denver Center
Fri 08:42:45 PM 40.7369 -99.9989 276° West 420 483 38,000  Level Denver Center
Fri 08:43:46 PM 40.7503 -100.1708 276° West 421 484 38,000  Level Denver Center
Fri 08:44:47 PM 40.7614 -100.3169 276° West 421 484 38,000  Level Denver Center
Fri 08:45:48 PM 40.7719 -100.4619 276° West 415 478 38,000  Level Denver Center
Fri 08:46:50 PM 40.7814 -100.6303 274° West 411 473 38,000  Level Denver Center
Fri 08:47:51 PM 40.7572 -100.7956 259° West 430 495 38,000  Level Denver Center
Fri 08:48:52 PM 40.7344 -100.9353 258° West 426 490 38,000  Level Denver Center
Fri 08:54:08 PM 40.5980 -101.7340 258° West 417 480 38,000  Level FlightAware ADS-B
Fri 08:54:54 PM 40.5770 -101.8520 257° West 421 484 38,000  Level FlightAware ADS-B
Fri 08:55:30 PM 40.5610 -101.9380 256° West 422 486 38,000  Level FlightAware ADS-B
Fri 08:56:11 PM 40.5430 -102.0390 257° West 423 487 38,000  Level FlightAware ADS-B
Fri 08:56:50 PM 40.5250 -102.1370 256° West 424 488 38,000  Level FlightAware ADS-B
Fri 08:57:30 PM 40.5070 -102.2390 257° West 426 490 38,000  Level FlightAware ADS-B
Fri 08:58:06 PM 40.4900 -102.3310 256° West 427 491 38,000  Level FlightAware ADS-B
Fri 08:58:50 PM 40.4700 -102.4420 257° West 429 494 38,000  Level FlightAware ADS-B
Fri 08:59:30 PM 40.4510 -102.5430 256° West 430 495 38,000  Level FlightAware ADS-B
Fri 09:00:14 PM 40.4300 -102.6550 256° West 431 496 38,000 -488 Level FlightAware ADS-B
Fri 09:00:56 PM 40.4100 -102.7610 256° West 431 496 37,300 -2,122 Descending FlightAware ADS-B
Fri 09:01:36 PM 40.3910 -102.8640 256° West 441 507 35,100 -2,612 Descending FlightAware ADS-B
Fri 09:02:21 PM 40.3690 -102.9790 256° West 441 507 33,600 -2,286 Descending FlightAware ADS-B
Fri 09:03:00 PM 40.3500 -103.0820 256° West 440 506 31,900 -2,386 Descending FlightAware ADS-B
Fri 09:03:44 PM 40.3280 -103.1940 256° West 431 496 30,300 -2,214 Descending FlightAware ADS-B
Fri 09:04:24 PM 40.3090 -103.2950 256° West 424 488 28,800 -2,214 Descending FlightAware ADS-B
Fri 09:05:08 PM 40.2890 -103.4020 256° West 417 480 27,200 -2,143 Descending FlightAware ADS-B
Fri 09:05:48 PM 40.2700 -103.5000 256° West 408 470 25,800 -2,100 Descending FlightAware ADS-B
Fri 09:06:28 PM 40.2510 -103.5940 255° West 400 460 24,400 -2,093 Descending FlightAware ADS-B
Fri 09:07:14 PM 40.2300 -103.7020 256° West 392 451 22,800 -1,744 Descending FlightAware ADS-B
Fri 09:07:54 PM 40.2120 -103.7920 255° West 372 428 21,900 -1,143 Descending FlightAware ADS-B
Fri 09:08:38 PM 40.1870 -103.8800 250° West 351 404 21,200 -1,256 Descending FlightAware ADS-B
Fri 09:09:20 PM 40.1530 -103.9560 240° Southwest 348 400 20,100 -1,615 Descending FlightAware ADS-B
Fri 09:09:56 PM 40.1230 -104.0200 239° Southwest 345 397 19,100 -1,658 Descending FlightAware ADS-B
Fri 09:10:36 PM 40.0900 -104.0900 238° Southwest 340 391 18,000 -1,636 Descending FlightAware ADS-B
Fri 09:11:24 PM 40.0510 -104.1740 239° Southwest 331 381 16,700 -1,565 Descending FlightAware ADS-B
Fri 09:12:08 PM 40.0170 -104.2480 239° Southwest 324 373 15,600 -1,518 Descending FlightAware ADS-B
Fri 09:12:47 PM 39.9870 -104.3120 239° Southwest 318 366 14,600 -1,500 Descending FlightAware ADS-B
Fri 09:13:28 PM 39.9560 -104.3790 239° Southwest 314 361 13,600 -1,556 Descending FlightAware ADS-B
Fri 09:14:08 PM 39.9260 -104.4440 239° Southwest 309 356 12,500 -1,588 Descending FlightAware ADS-B
Fri 09:14:36 PM 39.9030 -104.4850 234° Southwest 308 354 11,800 -1,286 Descending FlightAware ADS-B
Fri 09:14:50 PM 39.8850 -104.4970 207° Southwest 305 351 11,600 -923 Descending FlightAware ADS-B
Fri 09:15:02 PM 39.8680 -104.5000 188° South 300 345 11,400 -667 Descending FlightAware ADS-B
Fri 09:15:44 PM 39.8120 -104.5010 181° South 278 320 11,000 -279 Descending FlightAware ADS-B
Fri 09:16:28 PM 39.7590 -104.5020 181° South 242 278 11,000 -349 Level FlightAware ADS-B
Fri 09:17:10 PM 39.7140 -104.5020 180° South 234 269 10,500 -1,014 Descending FlightAware ADS-B
Fri 09:17:39 PM 39.6840 -104.5090 190° South 238 274 9,800 -1,610 Descending FlightAware ADS-B
Fri 09:17:51 PM 39.6750 -104.5220 228° Southwest 234 269 9,400 -1,459 Descending FlightAware ADS-B
Fri 09:18:16 PM 39.6650 -104.5550 249° West 232 267 8,900 -1,149 Descending FlightAware ADS-B
Fri 09:18:38 PM 39.6570 -104.5840 250° West 223 257 8,500 -960 Descending FlightAware ADS-B
Fri 09:19:06 PM 39.6700 -104.6140 299° West 206 237 8,100 -1,091 Descending FlightAware ADS-B
Fri 09:19:22 PM 39.6840 -104.6210 339° North 204 235 7,700 -1,105 Descending FlightAware ADS-B
Fri 09:19:44 PM 39.7040 -104.6280 345° North 200 230 7,400 -1,000 Descending FlightAware ADS-B
Fri 09:20:04 PM 39.7210 -104.6330 347° North 199 229 7,000 -500 Descending FlightAware ADS-B
Fri 09:20:32 PM 39.7460 -104.6410 346° North 192 221 7,000 -273 Level FlightAware ADS-B
Fri 09:20:48 PM 39.7600 -104.6430 354° North 185 213 6,800 -833 Descending FlightAware ADS-B
Fri 09:21:08 PM 39.7760 -104.6420 North 170 196 6,500 -938 Descending FlightAware ADS-B
Fri 09:21:20 PM 39.7860 -104.6420 360° North 159 183 6,300 -1,071 Descending FlightAware ADS-B
Fri 09:21:36 PM 39.7970 -104.6420 360° North 161 185 6,000 -1,000 Descending FlightAware ADS-B
Fri 09:21:56 PM 39.8120 -104.6420 360° North 161 185 5,700 -514 Descending FlightAware ADS-B
Fri 09:22:46 PM 39.8470 -104.6420 360° North 167 192 5,400 -360 Descending FlightAware ADS-B
Fri 09:26:45 PM 39.8650 -104.6610 321° Northwest 29 33 -1,356 Descending FlightAware ADS-B
Fri 09:26:58 PM 39.8650 -104.6620 270° West 15 17  Level FlightAware ADS-B
Fri 09:30:00 PM 39.8500 -104.6667 322° Northwest  Level FlightAware Approximate
Fri 09:31:00 PM 39.8617 -104.6732 322° Northwest  Level Estimated
Fri 09:32:00 PM 39.8617 -104.6732 322° Northwest  Level Estimated

Login

Don't have an account? Register now (free) for customized features, flight alerts, and more!